Bryon Bay, Australia
Current Conditions -  °F | °C
As of 4:00 AM on Friday 28 Nov 2014 (Local Time) from YBNA Reporting Station
Overcast Overcast  
Wind Chill: 70°   Ceiling: 4100
Heat Index: 70°   Visibility: 6mi
Dew Point: 64°   Wind: 9mph
Humidity: 83%   Direction: 160°SSE
Pressure: 30.03"   Gusts: NA
Location:  28.66°S, 153.62°E
Report Text: YBNA 271700Z AUTO 16008KT 9999 // OVC041 21/18 Q1017
Loading
Personal Weather Stations






























Interactive Weather Map New forecast layout! Learn more

10-Day Weather Forecast

Advertisements
Track Severe Weather on mobile